sensor_id;sensor_type;location;lat;lon;timestamp;P1;durP1;ratioP1;P2;durP2;ratioP2
45388;SDS011;31127;52.078;4.370;2023-05-28T00:04:33;22.75;;;6.57;;
45388;SDS011;31127;52.078;4.370;2023-05-28T00:09:29;24.80;;;7.68;;
45388;SDS011;31127;52.078;4.370;2023-05-28T00:14:24;18.67;;;6.32;;
45388;SDS011;31127;52.078;4.370;2023-05-28T00:19:40;19.15;;;6.78;;
45388;SDS011;31127;52.078;4.370;2023-05-28T00:24:35;25.83;;;7.68;;
45388;SDS011;31127;52.078;4.370;2023-05-28T00:29:31;13.68;;;6.25;;
45388;SDS011;31127;52.078;4.370;2023-05-28T00:34:26;22.80;;;7.13;;
45388;SDS011;31127;52.078;4.370;2023-05-28T00:39:22;20.35;;;7.72;;
45388;SDS011;31127;52.078;4.370;2023-05-28T00:44:18;21.17;;;7.30;;
45388;SDS011;31127;52.078;4.370;2023-05-28T00:49:15;14.32;;;6.93;;
45388;SDS011;31127;52.078;4.370;2023-05-28T00:54:11;17.30;;;5.90;;
45388;SDS011;31127;52.078;4.370;2023-05-28T00:59:06;21.20;;;6.93;;
45388;SDS011;31127;52.078;4.370;2023-05-28T01:04:02;19.02;;;6.78;;
45388;SDS011;31127;52.078;4.370;2023-05-28T01:09:08;22.35;;;7.50;;
45388;SDS011;31127;52.078;4.370;2023-05-28T01:14:04;15.45;;;6.40;;
45388;SDS011;31127;52.078;4.370;2023-05-28T01:19:00;26.08;;;7.90;;
45388;SDS011;31127;52.078;4.370;2023-05-28T01:23:57;19.40;;;7.03;;
45388;SDS011;31127;52.078;4.370;2023-05-28T01:29:13;21.40;;;8.55;;
45388;SDS011;31127;52.078;4.370;2023-05-28T01:34:10;18.10;;;7.25;;
45388;SDS011;31127;52.078;4.370;2023-05-28T01:39:06;24.70;;;7.40;;
45388;SDS011;31127;52.078;4.370;2023-05-28T01:44:03;20.83;;;7.18;;
45388;SDS011;31127;52.078;4.370;2023-05-28T01:49:02;18.20;;;6.40;;
45388;SDS011;31127;52.078;4.370;2023-05-28T01:53:59;17.08;;;6.40;;
45388;SDS011;31127;52.078;4.370;2023-05-28T01:58:54;25.73;;;8.00;;
45388;SDS011;31127;52.078;4.370;2023-05-28T02:03:50;19.92;;;8.65;;
45388;SDS011;31127;52.078;4.370;2023-05-28T02:08:45;25.87;;;8.37;;
45388;SDS011;31127;52.078;4.370;2023-05-28T02:13:41;20.08;;;8.18;;
45388;SDS011;31127;52.078;4.370;2023-05-28T02:18:45;22.75;;;7.32;;
45388;SDS011;31127;52.078;4.370;2023-05-28T02:23:45;23.80;;;7.80;;
45388;SDS011;31127;52.078;4.370;2023-05-28T02:28:41;25.88;;;8.38;;
45388;SDS011;31127;52.078;4.370;2023-05-28T02:33:41;23.08;;;7.68;;
45388;SDS011;31127;52.078;4.370;2023-05-28T02:38:36;20.67;;;7.63;;
45388;SDS011;31127;52.078;4.370;2023-05-28T02:43:33;27.05;;;7.18;;
45388;SDS011;31127;52.078;4.370;2023-05-28T02:48:30;23.45;;;7.40;;
45388;SDS011;31127;52.078;4.370;2023-05-28T02:53:28;22.70;;;8.02;;
45388;SDS011;31127;52.078;4.370;2023-05-28T02:58:23;23.10;;;7.93;;
45388;SDS011;31127;52.078;4.370;2023-05-28T03:03:19;28.35;;;8.00;;
45388;SDS011;31127;52.078;4.370;2023-05-28T03:08:15;24.70;;;8.63;;
45388;SDS011;31127;52.078;4.370;2023-05-28T03:13:11;26.25;;;6.78;;
45388;SDS011;31127;52.078;4.370;2023-05-28T03:18:06;23.73;;;7.45;;
45388;SDS011;31127;52.078;4.370;2023-05-28T03:23:05;20.55;;;7.53;;
45388;SDS011;31127;52.078;4.370;2023-05-28T03:28:14;22.85;;;6.82;;
45388;SDS011;31127;52.078;4.370;2023-05-28T03:33:22;19.92;;;6.88;;
45388;SDS011;31127;52.078;4.370;2023-05-28T03:38:18;27.23;;;6.88;;
45388;SDS011;31127;52.078;4.370;2023-05-28T03:43:15;19.80;;;8.07;;
45388;SDS011;31127;52.078;4.370;2023-05-28T03:48:10;26.42;;;7.32;;
45388;SDS011;31127;52.078;4.370;2023-05-28T03:53:06;21.75;;;6.82;;
45388;SDS011;31127;52.078;4.370;2023-05-28T03:58:03;24.63;;;8.48;;
45388;SDS011;31127;52.078;4.370;2023-05-28T04:03:08;17.88;;;7.28;;
45388;SDS011;31127;52.078;4.370;2023-05-28T04:08:05;26.52;;;7.03;;
45388;SDS011;31127;52.078;4.370;2023-05-28T04:13:01;25.07;;;8.20;;
45388;SDS011;31127;52.078;4.370;2023-05-28T04:17:56;20.05;;;7.00;;
45388;SDS011;31127;52.078;4.370;2023-05-28T04:22:52;24.48;;;6.57;;
45388;SDS011;31127;52.078;4.370;2023-05-28T04:27:47;20.33;;;6.85;;
45388;SDS011;31127;52.078;4.370;2023-05-28T04:32:43;18.90;;;6.32;;
45388;SDS011;31127;52.078;4.370;2023-05-28T04:37:38;18.60;;;7.18;;
45388;SDS011;31127;52.078;4.370;2023-05-28T04:42:34;24.45;;;6.95;;
45388;SDS011;31127;52.078;4.370;2023-05-28T04:47:31;21.60;;;7.35;;
45388;SDS011;31127;52.078;4.370;2023-05-28T04:52:27;17.75;;;6.78;;
45388;SDS011;31127;52.078;4.370;2023-05-28T04:57:23;20.93;;;7.23;;
45388;SDS011;31127;52.078;4.370;2023-05-28T05:02:19;20.33;;;7.50;;
45388;SDS011;31127;52.078;4.370;2023-05-28T05:07:16;19.63;;;7.10;;
45388;SDS011;31127;52.078;4.370;2023-05-28T05:12:11;22.08;;;7.55;;
45388;SDS011;31127;52.078;4.370;2023-05-28T05:17:07;20.05;;;7.40;;
45388;SDS011;31127;52.078;4.370;2023-05-28T05:22:04;21.15;;;7.05;;
45388;SDS011;31127;52.078;4.370;2023-05-28T05:27:00;17.42;;;7.45;;
45388;SDS011;31127;52.078;4.370;2023-05-28T05:31:57;17.85;;;7.07;;
45388;SDS011;31127;52.078;4.370;2023-05-28T05:36:54;19.17;;;7.70;;
45388;SDS011;31127;52.078;4.370;2023-05-28T05:42:32;20.15;;;6.55;;
45388;SDS011;31127;52.078;4.370;2023-05-28T05:47:27;20.77;;;7.57;;
45388;SDS011;31127;52.078;4.370;2023-05-28T05:52:24;15.52;;;6.80;;
45388;SDS011;31127;52.078;4.370;2023-05-28T05:57:22;17.75;;;6.97;;
45388;SDS011;31127;52.078;4.370;2023-05-28T06:02:21;17.23;;;6.88;;
45388;SDS011;31127;52.078;4.370;2023-05-28T06:07:17;14.68;;;7.38;;
45388;SDS011;31127;52.078;4.370;2023-05-28T06:12:31;25.48;;;7.45;;
45388;SDS011;31127;52.078;4.370;2023-05-28T06:17:27;18.70;;;6.47;;
45388;SDS011;31127;52.078;4.370;2023-05-28T06:22:22;19.85;;;5.68;;
45388;SDS011;31127;52.078;4.370;2023-05-28T06:27:19;15.10;;;6.55;;
45388;SDS011;31127;52.078;4.370;2023-05-28T06:32:15;17.25;;;6.00;;
45388;SDS011;31127;52.078;4.370;2023-05-28T06:37:12;15.70;;;6.72;;
45388;SDS011;31127;52.078;4.370;2023-05-28T06:42:08;21.75;;;6.30;;
45388;SDS011;31127;52.078;4.370;2023-05-28T06:47:15;17.98;;;5.80;;
45388;SDS011;31127;52.078;4.370;2023-05-28T06:52:10;18.80;;;6.75;;
45388;SDS011;31127;52.078;4.370;2023-05-28T06:57:06;26.52;;;6.93;;
45388;SDS011;31127;52.078;4.370;2023-05-28T07:02:01;18.20;;;6.60;;
45388;SDS011;31127;52.078;4.370;2023-05-28T07:07:15;15.18;;;5.00;;
45388;SDS011;31127;52.078;4.370;2023-05-28T07:12:11;13.38;;;6.07;;
45388;SDS011;31127;52.078;4.370;2023-05-28T07:17:12;17.42;;;5.97;;
45388;SDS011;31127;52.078;4.370;2023-05-28T07:22:09;19.63;;;6.32;;
45388;SDS011;31127;52.078;4.370;2023-05-28T07:27:06;15.18;;;5.63;;
45388;SDS011;31127;52.078;4.370;2023-05-28T07:32:02;20.13;;;6.80;;
45388;SDS011;31127;52.078;4.370;2023-05-28T07:37:02;14.07;;;5.97;;
45388;SDS011;31127;52.078;4.370;2023-05-28T07:41:57;17.17;;;6.68;;
45388;SDS011;31127;52.078;4.370;2023-05-28T07:46:58;17.42;;;5.60;;
45388;SDS011;31127;52.078;4.370;2023-05-28T07:52:14;16.75;;;6.40;;
45388;SDS011;31127;52.078;4.370;2023-05-28T07:57:30;14.55;;;5.05;;
45388;SDS011;31127;52.078;4.370;2023-05-28T08:02:26;13.88;;;5.47;;
45388;SDS011;31127;52.078;4.370;2023-05-28T08:07:22;16.65;;;5.88;;
45388;SDS011;31127;52.078;4.370;2023-05-28T08:12:37;13.77;;;5.43;;
45388;SDS011;31127;52.078;4.370;2023-05-28T08:17:33;19.00;;;5.05;;
45388;SDS011;31127;52.078;4.370;2023-05-28T08:22:37;20.80;;;4.88;;
45388;SDS011;31127;52.078;4.370;2023-05-28T08:27:33;13.10;;;4.60;;
45388;SDS011;31127;52.078;4.370;2023-05-28T08:32:29;16.05;;;4.82;;
45388;SDS011;31127;52.078;4.370;2023-05-28T08:37:25;12.20;;;5.20;;
45388;SDS011;31127;52.078;4.370;2023-05-28T08:42:50;14.98;;;6.43;;
45388;SDS011;31127;52.078;4.370;2023-05-28T08:47:46;12.20;;;5.95;;
45388;SDS011;31127;52.078;4.370;2023-05-28T08:52:46;12.80;;;4.53;;
45388;SDS011;31127;52.078;4.370;2023-05-28T08:57:44;19.58;;;6.13;;
45388;SDS011;31127;52.078;4.370;2023-05-28T09:03:00;10.80;;;5.68;;
45388;SDS011;31127;52.078;4.370;2023-05-28T09:07:55;15.23;;;5.93;;
45388;SDS011;31127;52.078;4.370;2023-05-28T09:12:59;16.63;;;5.75;;
45388;SDS011;31127;52.078;4.370;2023-05-28T09:17:55;17.48;;;5.75;;
45388;SDS011;31127;52.078;4.370;2023-05-28T09:22:57;13.55;;;5.85;;
45388;SDS011;31127;52.078;4.370;2023-05-28T09:28:07;11.43;;;4.70;;
45388;SDS011;31127;52.078;4.370;2023-05-28T09:33:03;15.82;;;6.22;;
45388;SDS011;31127;52.078;4.370;2023-05-28T09:38:10;18.38;;;8.70;;
45388;SDS011;31127;52.078;4.370;2023-05-28T09:43:05;15.57;;;4.72;;
45388;SDS011;31127;52.078;4.370;2023-05-28T09:48:21;15.00;;;5.18;;
45388;SDS011;31127;52.078;4.370;2023-05-28T09:53:37;14.15;;;5.45;;
45388;SDS011;31127;52.078;4.370;2023-05-28T09:58:56;14.95;;;4.88;;
45388;SDS011;31127;52.078;4.370;2023-05-28T10:03:55;12.60;;;4.80;;
45388;SDS011;31127;52.078;4.370;2023-05-28T10:08:53;14.52;;;7.45;;
45388;SDS011;31127;52.078;4.370;2023-05-28T10:13:49;13.27;;;5.45;;
45388;SDS011;31127;52.078;4.370;2023-05-28T10:18:45;11.88;;;5.30;;
45388;SDS011;31127;52.078;4.370;2023-05-28T10:23:40;15.55;;;5.05;;
45388;SDS011;31127;52.078;4.370;2023-05-28T10:28:57;10.55;;;4.68;;
45388;SDS011;31127;52.078;4.370;2023-05-28T10:33:52;14.38;;;5.20;;
45388;SDS011;31127;52.078;4.370;2023-05-28T10:44:06;11.48;;;6.00;;
45388;SDS011;31127;52.078;4.370;2023-05-28T10:54:13;12.50;;;5.55;;
45388;SDS011;31127;52.078;4.370;2023-05-28T10:59:15;14.27;;;5.88;;
45388;SDS011;31127;52.078;4.370;2023-05-28T11:04:10;12.18;;;5.90;;
45388;SDS011;31127;52.078;4.370;2023-05-28T11:09:06;11.32;;;5.60;;
45388;SDS011;31127;52.078;4.370;2023-05-28T11:14:01;10.65;;;5.55;;
45388;SDS011;31127;52.078;4.370;2023-05-28T11:19:00;7.93;;;5.10;;
45388;SDS011;31127;52.078;4.370;2023-05-28T11:24:16;11.00;;;5.88;;
45388;SDS011;31127;52.078;4.370;2023-05-28T11:29:12;13.33;;;5.40;;
45388;SDS011;31127;52.078;4.370;2023-05-28T11:34:08;10.00;;;5.55;;
45388;SDS011;31127;52.078;4.370;2023-05-28T11:39:03;8.65;;;4.55;;
45388;SDS011;31127;52.078;4.370;2023-05-28T11:44:22;9.13;;;5.55;;
45388;SDS011;31127;52.078;4.370;2023-05-28T11:49:17;10.45;;;5.82;;
45388;SDS011;31127;52.078;4.370;2023-05-28T11:54:29;8.50;;;5.43;;
45388;SDS011;31127;52.078;4.370;2023-05-28T11:59:24;10.20;;;5.50;;
45388;SDS011;31127;52.078;4.370;2023-05-28T12:04:21;8.07;;;4.22;;
45388;SDS011;31127;52.078;4.370;2023-05-28T12:09:17;9.05;;;4.35;;
45388;SDS011;31127;52.078;4.370;2023-05-28T12:14:13;6.20;;;4.47;;
45388;SDS011;31127;52.078;4.370;2023-05-28T12:19:10;8.85;;;4.93;;
45388;SDS011;31127;52.078;4.370;2023-05-28T12:24:18;7.57;;;4.70;;
45388;SDS011;31127;52.078;4.370;2023-05-28T12:29:33;9.57;;;4.82;;
45388;SDS011;31127;52.078;4.370;2023-05-28T12:34:49;9.50;;;5.05;;
45388;SDS011;31127;52.078;4.370;2023-05-28T12:40:04;7.43;;;4.78;;
45388;SDS011;31127;52.078;4.370;2023-05-28T12:45:01;8.27;;;5.32;;
45388;SDS011;31127;52.078;4.370;2023-05-28T12:49:57;11.32;;;5.13;;
45388;SDS011;31127;52.078;4.370;2023-05-28T12:54:52;6.67;;;4.53;;
45388;SDS011;31127;52.078;4.370;2023-05-28T12:59:48;7.60;;;4.43;;
45388;SDS011;31127;52.078;4.370;2023-05-28T13:04:43;6.82;;;4.20;;
45388;SDS011;31127;52.078;4.370;2023-05-28T13:09:39;8.23;;;5.05;;
45388;SDS011;31127;52.078;4.370;2023-05-28T13:14:35;10.63;;;6.13;;
45388;SDS011;31127;52.078;4.370;2023-05-28T13:19:37;10.17;;;5.73;;
45388;SDS011;31127;52.078;4.370;2023-05-28T13:24:32;8.57;;;5.68;;
45388;SDS011;31127;52.078;4.370;2023-05-28T13:29:28;11.25;;;5.82;;
45388;SDS011;31127;52.078;4.370;2023-05-28T13:34:23;12.35;;;7.93;;
45388;SDS011;31127;52.078;4.370;2023-05-28T13:39:19;8.03;;;5.20;;
45388;SDS011;31127;52.078;4.370;2023-05-28T13:44:17;8.13;;;4.38;;
45388;SDS011;31127;52.078;4.370;2023-05-28T13:49:12;11.18;;;6.03;;
45388;SDS011;31127;52.078;4.370;2023-05-28T13:54:28;9.35;;;4.75;;
45388;SDS011;31127;52.078;4.370;2023-05-28T13:59:43;9.43;;;4.95;;
45388;SDS011;31127;52.078;4.370;2023-05-28T14:04:40;6.03;;;4.10;;
45388;SDS011;31127;52.078;4.370;2023-05-28T14:09:35;9.23;;;4.47;;
45388;SDS011;31127;52.078;4.370;2023-05-28T14:14:34;4.90;;;3.90;;
45388;SDS011;31127;52.078;4.370;2023-05-28T14:19:29;5.60;;;4.68;;
45388;SDS011;31127;52.078;4.370;2023-05-28T14:24:25;5.03;;;4.53;;
45388;SDS011;31127;52.078;4.370;2023-05-28T14:29:20;6.27;;;5.00;;
45388;SDS011;31127;52.078;4.370;2023-05-28T14:34:16;5.88;;;4.35;;
45388;SDS011;31127;52.078;4.370;2023-05-28T14:39:31;5.07;;;4.57;;
45388;SDS011;31127;52.078;4.370;2023-05-28T14:44:27;6.25;;;5.07;;
45388;SDS011;31127;52.078;4.370;2023-05-28T14:49:23;7.45;;;4.57;;
45388;SDS011;31127;52.078;4.370;2023-05-28T14:54:19;4.68;;;3.67;;
45388;SDS011;31127;52.078;4.370;2023-05-28T14:59:14;5.37;;;3.90;;
45388;SDS011;31127;52.078;4.370;2023-05-28T15:04:10;9.27;;;4.63;;
45388;SDS011;31127;52.078;4.370;2023-05-28T15:09:06;4.80;;;3.25;;
45388;SDS011;31127;52.078;4.370;2023-05-28T15:14:01;5.35;;;3.58;;
45388;SDS011;31127;52.078;4.370;2023-05-28T15:19:06;4.80;;;3.63;;
45388;SDS011;31127;52.078;4.370;2023-05-28T15:24:02;12.55;;;3.50;;
45388;SDS011;31127;52.078;4.370;2023-05-28T15:28:58;16.30;;;5.50;;
45388;SDS011;31127;52.078;4.370;2023-05-28T15:34:12;10.85;;;4.47;;
45388;SDS011;31127;52.078;4.370;2023-05-28T15:39:08;15.38;;;4.95;;
45388;SDS011;31127;52.078;4.370;2023-05-28T15:44:05;14.68;;;4.75;;
45388;SDS011;31127;52.078;4.370;2023-05-28T15:49:00;14.43;;;4.70;;
45388;SDS011;31127;52.078;4.370;2023-05-28T15:53:56;14.38;;;5.07;;
45388;SDS011;31127;52.078;4.370;2023-05-28T15:59:09;14.00;;;4.95;;
45388;SDS011;31127;52.078;4.370;2023-05-28T16:04:04;10.07;;;4.97;;
45388;SDS011;31127;52.078;4.370;2023-05-28T16:09:00;8.95;;;3.85;;
45388;SDS011;31127;52.078;4.370;2023-05-28T16:13:56;11.70;;;3.88;;
45388;SDS011;31127;52.078;4.370;2023-05-28T16:18:53;8.95;;;3.88;;
45388;SDS011;31127;52.078;4.370;2023-05-28T16:23:48;11.25;;;3.83;;
45388;SDS011;31127;52.078;4.370;2023-05-28T16:28:44;11.63;;;5.10;;
45388;SDS011;31127;52.078;4.370;2023-05-28T16:33:42;10.15;;;4.20;;
45388;SDS011;31127;52.078;4.370;2023-05-28T16:38:38;13.88;;;4.30;;
45388;SDS011;31127;52.078;4.370;2023-05-28T16:43:34;7.43;;;3.30;;
45388;SDS011;31127;52.078;4.370;2023-05-28T16:48:30;8.27;;;3.47;;
45388;SDS011;31127;52.078;4.370;2023-05-28T16:53:26;13.30;;;4.57;;
45388;SDS011;31127;52.078;4.370;2023-05-28T16:58:41;15.68;;;4.72;;
45388;SDS011;31127;52.078;4.370;2023-05-28T17:03:37;11.20;;;3.88;;
45388;SDS011;31127;52.078;4.370;2023-05-28T17:08:33;11.07;;;4.28;;
45388;SDS011;31127;52.078;4.370;2023-05-28T17:13:48;14.38;;;4.20;;
45388;SDS011;31127;52.078;4.370;2023-05-28T17:18:44;11.45;;;4.13;;
45388;SDS011;31127;52.078;4.370;2023-05-28T17:23:39;12.35;;;4.20;;
45388;SDS011;31127;52.078;4.370;2023-05-28T17:28:35;10.32;;;3.78;;
45388;SDS011;31127;52.078;4.370;2023-05-28T17:33:30;8.13;;;3.53;;
45388;SDS011;31127;52.078;4.370;2023-05-28T17:38:26;11.07;;;4.60;;
45388;SDS011;31127;52.078;4.370;2023-05-28T17:43:24;13.55;;;4.38;;
45388;SDS011;31127;52.078;4.370;2023-05-28T17:48:20;11.27;;;3.70;;
45388;SDS011;31127;52.078;4.370;2023-05-28T17:53:18;14.77;;;4.53;;
45388;SDS011;31127;52.078;4.370;2023-05-28T17:58:14;11.48;;;4.22;;
45388;SDS011;31127;52.078;4.370;2023-05-28T18:03:13;11.27;;;4.03;;
45388;SDS011;31127;52.078;4.370;2023-05-28T18:08:08;9.07;;;4.05;;
45388;SDS011;31127;52.078;4.370;2023-05-28T18:13:04;15.70;;;5.37;;
45388;SDS011;31127;52.078;4.370;2023-05-28T18:17:59;10.23;;;4.00;;
45388;SDS011;31127;52.078;4.370;2023-05-28T18:22:55;9.90;;;3.90;;
45388;SDS011;31127;52.078;4.370;2023-05-28T18:27:50;15.15;;;4.35;;
45388;SDS011;31127;52.078;4.370;2023-05-28T18:32:46;7.93;;;3.77;;
45388;SDS011;31127;52.078;4.370;2023-05-28T18:37:41;12.70;;;4.03;;
45388;SDS011;31127;52.078;4.370;2023-05-28T18:42:37;12.83;;;4.93;;
45388;SDS011;31127;52.078;4.370;2023-05-28T18:47:32;12.93;;;4.57;;
45388;SDS011;31127;52.078;4.370;2023-05-28T18:52:28;10.02;;;4.18;;
45388;SDS011;31127;52.078;4.370;2023-05-28T18:57:24;11.30;;;4.85;;
45388;SDS011;31127;52.078;4.370;2023-05-28T19:02:20;11.07;;;5.28;;
45388;SDS011;31127;52.078;4.370;2023-05-28T19:07:15;9.15;;;5.20;;
45388;SDS011;31127;52.078;4.370;2023-05-28T19:12:12;14.35;;;5.50;;
45388;SDS011;31127;52.078;4.370;2023-05-28T19:17:07;13.43;;;4.90;;
45388;SDS011;31127;52.078;4.370;2023-05-28T19:22:03;14.20;;;5.82;;
45388;SDS011;31127;52.078;4.370;2023-05-28T19:27:13;12.30;;;5.55;;
45388;SDS011;31127;52.078;4.370;2023-05-28T19:32:08;11.52;;;5.65;;
45388;SDS011;31127;52.078;4.370;2023-05-28T19:37:04;14.10;;;6.20;;
45388;SDS011;31127;52.078;4.370;2023-05-28T19:42:20;13.73;;;5.43;;
45388;SDS011;31127;52.078;4.370;2023-05-28T19:47:15;10.52;;;4.78;;
45388;SDS011;31127;52.078;4.370;2023-05-28T19:52:11;12.25;;;5.43;;
45388;SDS011;31127;52.078;4.370;2023-05-28T19:57:06;13.07;;;5.13;;
45388;SDS011;31127;52.078;4.370;2023-05-28T20:02:06;14.25;;;5.20;;
45388;SDS011;31127;52.078;4.370;2023-05-28T20:07:01;11.93;;;5.80;;
45388;SDS011;31127;52.078;4.370;2023-05-28T20:11:57;12.82;;;6.07;;
45388;SDS011;31127;52.078;4.370;2023-05-28T20:16:52;10.77;;;4.22;;
45388;SDS011;31127;52.078;4.370;2023-05-28T20:21:51;13.52;;;4.90;;
45388;SDS011;31127;52.078;4.370;2023-05-28T20:26:46;8.00;;;3.88;;
45388;SDS011;31127;52.078;4.370;2023-05-28T20:32:00;9.73;;;4.90;;
45388;SDS011;31127;52.078;4.370;2023-05-28T20:36:56;12.50;;;4.97;;
45388;SDS011;31127;52.078;4.370;2023-05-28T20:41:54;13.32;;;4.43;;
45388;SDS011;31127;52.078;4.370;2023-05-28T20:46:50;16.33;;;7.00;;
45388;SDS011;31127;52.078;4.370;2023-05-28T20:51:46;14.93;;;3.35;;
45388;SDS011;31127;52.078;4.370;2023-05-28T20:56:42;11.57;;;3.08;;
45388;SDS011;31127;52.078;4.370;2023-05-28T21:01:40;8.40;;;3.00;;
45388;SDS011;31127;52.078;4.370;2023-05-28T21:06:56;9.57;;;2.58;;
45388;SDS011;31127;52.078;4.370;2023-05-28T21:11:51;10.15;;;3.00;;
45388;SDS011;31127;52.078;4.370;2023-05-28T21:16:46;14.90;;;2.97;;
45388;SDS011;31127;52.078;4.370;2023-05-28T21:21:42;11.20;;;2.40;;
45388;SDS011;31127;52.078;4.370;2023-05-28T21:26:57;11.48;;;3.05;;
45388;SDS011;31127;52.078;4.370;2023-05-28T21:31:53;11.52;;;2.65;;
45388;SDS011;31127;52.078;4.370;2023-05-28T21:36:48;9.87;;;2.50;;
45388;SDS011;31127;52.078;4.370;2023-05-28T21:41:44;9.68;;;2.25;;
45388;SDS011;31127;52.078;4.370;2023-05-28T21:46:59;12.63;;;3.13;;
45388;SDS011;31127;52.078;4.370;2023-05-28T21:51:55;8.60;;;2.33;;
45388;SDS011;31127;52.078;4.370;2023-05-28T21:56:50;6.97;;;2.30;;
45388;SDS011;31127;52.078;4.370;2023-05-28T22:01:46;9.57;;;3.00;;
45388;SDS011;31127;52.078;4.370;2023-05-28T22:06:41;12.43;;;3.60;;
45388;SDS011;31127;52.078;4.370;2023-05-28T22:11:41;12.32;;;2.58;;
45388;SDS011;31127;52.078;4.370;2023-05-28T22:16:56;15.48;;;2.95;;
45388;SDS011;31127;52.078;4.370;2023-05-28T22:22:12;12.65;;;2.50;;
45388;SDS011;31127;52.078;4.370;2023-05-28T22:27:28;11.55;;;2.60;;
45388;SDS011;31127;52.078;4.370;2023-05-28T22:32:43;15.18;;;3.17;;
45388;SDS011;31127;52.078;4.370;2023-05-28T22:37:38;13.90;;;2.95;;
45388;SDS011;31127;52.078;4.370;2023-05-28T22:42:34;9.35;;;2.42;;
45388;SDS011;31127;52.078;4.370;2023-05-28T22:47:30;15.32;;;3.00;;
45388;SDS011;31127;52.078;4.370;2023-05-28T22:52:26;11.88;;;2.90;;
45388;SDS011;31127;52.078;4.370;2023-05-28T22:57:21;11.80;;;2.30;;
45388;SDS011;31127;52.078;4.370;2023-05-28T23:02:17;12.23;;;2.60;;
45388;SDS011;31127;52.078;4.370;2023-05-28T23:07:13;16.17;;;3.60;;
45388;SDS011;31127;52.078;4.370;2023-05-28T23:12:08;12.20;;;2.65;;
45388;SDS011;31127;52.078;4.370;2023-05-28T23:17:07;14.68;;;2.92;;
45388;SDS011;31127;52.078;4.370;2023-05-28T23:22:02;13.20;;;2.77;;
45388;SDS011;31127;52.078;4.370;2023-05-28T23:26:58;14.82;;;2.88;;
45388;SDS011;31127;52.078;4.370;2023-05-28T23:31:53;12.20;;;2.50;;
45388;SDS011;31127;52.078;4.370;2023-05-28T23:36:49;19.58;;;2.83;;
45388;SDS011;31127;52.078;4.370;2023-05-28T23:42:04;16.30;;;2.70;;
45388;SDS011;31127;52.078;4.370;2023-05-28T23:47:00;13.95;;;3.55;;
45388;SDS011;31127;52.078;4.370;2023-05-28T23:51:56;15.82;;;3.30;;
45388;SDS011;31127;52.078;4.370;2023-05-28T23:56:52;12.75;;;2.30;;
